Aérodrome :
LOGIN :

S'inscrire | Disclaimer

   EN    FR    IT 

 










Légende :    VFR   VFR Marginal   IFR   IFR Intensif   IFR Très Intensif
Visi : 
Plafond : 
>= 8 km
>= 3000ft
5 à 8 km
1000 à 3000 ft
1500m à 5 km
500 à 1000 ft
800 à 1500m
200 à 500 ft
< 800m
< 200 ft
Symboles :   Orages  Brouillard  Fortes neiges  Fortes précipitations  Vent > 20 kt
SIGMETs :   Divers  Orages  Givrage  Turbulence  Onde Orograph.  Cendres Volcan.






- Altitude de l'aérodrome : 2731 ft
- Code IATA : LPY


LFHP - Le Puy Loudes

DERNIER METAR :
  • 281900Z AUTO 03004KT 360V070 CAVOK 18/06 Q1024

METARs EXPIRÉS :
  • 281830Z AUTO 04007KT CAVOK 19/07 Q1024
  • 281800Z AUTO 04009KT 010V070 CAVOK 20/07 Q1024
  • 281730Z AUTO 04008KT 350V080 CAVOK 21/07 Q1024
  • 281700Z AUTO 03010KT CAVOK 21/07 Q1024
  • 281630Z AUTO 04010KT 360V080 CAVOK 22/08 Q1024

Prévision TAF périmée.



MET'MAP, la Météo Aéronautique d'un coup d'oeil ! - Copyright ORBIFLY Décembre 2007 - Disclaimer

ORBIFLY MET'MAP TEAM :

Programmation & Développement : Alexandra Zaïnal
Sur une idée originale de : Baudouin d'Aumeries
Assistance à la programmation : Marc-Olivier Méhu
Soutien technique & logistique : Manuel Goepfert

Contact : metmap@orbifly.com




SOURCES & CREDITS :

   NOAA